Time;durP1;ratioP1;P1;durP2;ratioP2;P2;SDS_P1;SDS_P2;PMS_P1;PMS_P2;Temp;Humidity;BMP_temperature;BMP_pressure;BME280_temperature;BME280_humidity;BME280_pressure;Samples;Min_cycle;Max_cycle;Signal;HPM_P1;HPM_P2
2021/06/17 00:02:23;;;;;;;5.85;2.65;;;;;;;19.87;59.92;98413.97;4991123;28;20030;-67
2021/06/17 00:04:49;;;;;;;4.88;2.60;;;;;;;19.95;59.33;98438.13;4987215;28;20461;-67
2021/06/17 00:07:14;;;;;;;4.15;2.63;;;;;;;19.97;59.20;98443.38;4994560;28;20030;-67
2021/06/17 00:09:39;;;;;;;7.18;2.47;;;;;;;19.85;59.68;98429.88;4994910;28;20045;-67
2021/06/17 00:12:05;;;;;;;7.30;2.88;;;;;;;19.75;61.44;98430.69;4994545;28;20081;-67
2021/06/17 00:14:32;;;;;;;4.53;2.95;;;;;;;19.60;62.70;98433.41;4994036;28;20085;-67
2021/06/17 00:17:00;;;;;;;4.13;2.95;;;;;;;19.45;62.98;98432.25;4995777;28;20110;-67
2021/06/17 00:19:27;;;;;;;3.67;2.70;;;;;;;19.31;62.99;98436.59;4995199;28;20026;-67
2021/06/17 00:21:53;;;;;;;3.65;2.78;;;;;;;19.28;62.67;98417.91;4994535;28;20428;-67
2021/06/17 00:24:19;;;;;;;4.60;2.70;;;;;;;19.24;62.23;98422.31;4995158;28;20045;-67
2021/06/17 00:26:44;;;;;;;5.72;2.47;;;;;;;19.20;62.69;98429.41;4993706;28;20484;-67
2021/06/17 00:29:10;;;;;;;4.65;2.70;;;;;;;19.21;62.85;98420.13;4991703;28;20032;-67
2021/06/17 00:31:36;;;;;;;4.78;3.10;;;;;;;19.26;62.40;98407.25;4994266;28;20029;-67
2021/06/17 00:34:01;;;;;;;3.17;2.40;;;;;;;19.30;62.45;98420.41;4992345;28;20041;-67
2021/06/17 00:36:26;;;;;;;5.13;2.92;;;;;;;19.13;63.62;98413.22;4975914;28;20031;-67
2021/06/17 00:38:52;;;;;;;6.70;3.17;;;;;;;19.02;63.82;98417.00;4976382;28;20038;-67
2021/06/17 00:41:17;;;;;;;5.80;2.78;;;;;;;19.02;63.44;98417.84;4994300;28;20014;-67
2021/06/17 00:43:42;;;;;;;6.35;3.03;;;;;;;18.94;63.08;98426.59;4993561;28;20026;-67
2021/06/17 00:46:08;;;;;;;3.58;2.70;;;;;;;18.88;62.86;98424.06;4993674;28;20034;-67
2021/06/17 00:48:33;;;;;;;6.93;2.80;;;;;;;18.80;63.62;98428.97;4993222;28;20030;-67
2021/06/17 00:51:00;;;;;;;4.80;2.92;;;;;;;18.68;65.43;98422.00;4994684;28;20069;-67
2021/06/17 00:53:31;;;;;;;4.55;2.97;;;;;;;18.55;65.35;98429.63;4993428;28;20065;-67
2021/06/17 00:55:57;;;;;;;3.90;2.53;;;;;;;18.59;63.39;98424.44;4992841;28;20026;-67
2021/06/17 00:58:24;;;;;;;5.60;2.70;;;;;;;18.46;63.58;98409.28;4993525;28;20092;-67
2021/06/17 01:00:50;;;;;;;6.30;2.65;;;;;;;18.58;62.74;98401.69;4994410;28;20026;-67
2021/06/17 01:03:16;;;;;;;6.07;2.80;;;;;;;18.67;63.23;98421.19;4990478;28;20492;-67
2021/06/17 01:05:42;;;;;;;5.60;2.72;;;;;;;18.65;63.47;98414.34;4994743;28;20137;-67
2021/06/17 01:08:16;;;;;;;10.30;2.90;;;;;;;18.56;63.90;98427.72;4993997;28;20109;-67
2021/06/17 01:11:05;;;;;;;4.22;2.80;;;;;;;18.56;63.94;98414.84;4994347;28;20030;-67
2021/06/17 01:13:56;;;;;;;7.43;3.00;;;;;;;18.34;64.59;98400.47;4991171;28;20038;-67
2021/06/17 01:16:33;;;;;;;4.55;2.70;;;;;;;18.35;64.87;98416.63;4994192;28;20034;-67
2021/06/17 01:19:02;;;;;;;3.97;2.65;;;;;;;18.26;64.53;98414.63;4994525;28;20022;-67
2021/06/17 01:21:37;;;;;;;3.95;2.75;;;;;;;18.21;64.87;98414.59;4992603;28;20131;-67
2021/06/17 01:24:23;;;;;;;9.82;2.75;;;;;;;18.20;64.60;98407.47;4992664;28;20058;-67
2021/06/17 01:27:07;;;;;;;7.07;2.60;;;;;;;18.21;64.35;98409.09;4994003;28;20531;-67
2021/06/17 01:29:35;;;;;;;4.32;2.45;;;;;;;18.22;63.09;98397.91;4986788;28;20454;-67
2021/06/17 01:32:02;;;;;;;3.20;2.45;;;;;;;18.35;62.83;98400.19;4989189;28;20025;-67
2021/06/17 01:34:28;;;;;;;6.45;2.67;;;;;;;18.25;62.49;98369.16;4985448;28;20062;-67
2021/06/17 01:37:07;;;;;;;4.47;2.50;;;;;;;18.38;63.11;98374.19;4987392;28;20068;-67
2021/06/17 01:39:35;;;;;;;3.90;2.72;;;;;;;18.34;63.39;98378.56;4992748;28;20022;-67
2021/06/17 01:42:01;;;;;;;3.20;2.47;;;;;;;18.34;63.23;98379.38;4992857;28;20073;-67
2021/06/17 01:44:27;;;;;;;3.88;2.65;;;;;;;18.40;63.83;98372.81;4992137;28;20026;-67
2021/06/17 01:46:54;;;;;;;3.30;2.33;;;;;;;18.35;63.42;98369.25;4992075;28;20028;-67
2021/06/17 01:49:20;;;;;;;6.72;2.53;;;;;;;18.39;63.57;98354.75;4993886;28;20034;-67
2021/06/17 01:51:48;;;;;;;5.70;2.72;;;;;;;18.39;63.23;98367.59;4993753;28;20484;-67
2021/06/17 01:54:21;;;;;;;4.18;2.78;;;;;;;18.26;63.95;98370.81;4993107;28;20049;-67
2021/06/17 01:56:48;;;;;;;5.35;2.67;;;;;;;18.08;64.54;98374.81;4992993;28;20030;-67
2021/06/17 01:59:16;;;;;;;4.95;3.00;;;;;;;17.75;65.85;98363.84;4993594;28;20031;-67
2021/06/17 02:01:42;;;;;;;4.97;2.72;;;;;;;17.75;65.16;98365.75;4993718;28;20064;-67
2021/06/17 02:04:09;;;;;;;3.00;2.33;;;;;;;17.60;64.82;98350.03;4991682;28;20031;-67
2021/06/17 02:06:34;;;;;;;3.75;2.72;;;;;;;17.75;64.42;98369.31;4993464;28;20113;-67
2021/06/17 02:09:01;;;;;;;4.18;2.50;;;;;;;17.85;64.21;98363.13;4992960;28;20109;-67
2021/06/17 02:11:29;;;;;;;6.05;2.65;;;;;;;17.93;63.98;98370.88;4991370;28;20030;-67
2021/06/17 02:13:56;;;;;;;4.47;2.70;;;;;;;18.04;64.04;98374.50;4992786;28;20412;-67
2021/06/17 02:16:23;;;;;;;4.28;2.67;;;;;;;17.96;64.67;98372.25;4992975;28;20445;-67
2021/06/17 02:18:50;;;;;;;4.75;2.75;;;;;;;17.90;64.21;98362.38;4993018;28;20083;-67
2021/06/17 02:21:17;;;;;;;3.28;2.55;;;;;;;17.71;64.13;98332.63;4992729;28;20019;-67
2021/06/17 02:23:47;;;;;;;4.82;2.30;;;;;;;17.98;63.22;98372.00;4992323;28;20041;-67
2021/06/17 02:26:12;;;;;;;4.85;2.78;;;;;;;17.92;63.80;98350.06;4992622;28;20030;-67
2021/06/17 02:28:42;;;;;;;3.60;2.63;;;;;;;17.75;64.81;98352.91;4992612;28;20547;-67
2021/06/17 02:31:10;;;;;;;8.02;3.03;;;;;;;17.61;65.93;98373.56;4991353;28;20022;-67
2021/06/17 02:33:37;;;;;;;5.70;2.65;;;;;;;17.51;66.78;98385.25;4973737;28;20384;-67
2021/06/17 02:36:04;;;;;;;5.00;2.47;;;;;;;17.37;67.53;98388.63;4987328;28;20030;-67
2021/06/17 02:38:35;;;;;;;4.78;2.95;;;;;;;17.17;67.64;98370.94;4992704;28;20117;-67
2021/06/17 02:41:03;;;;;;;5.13;2.63;;;;;;;17.21;68.12;98387.66;4991963;28;20033;-67
2021/06/17 02:43:31;;;;;;;5.30;2.90;;;;;;;17.15;68.42;98388.69;4992051;28;20037;-67
2021/06/17 02:45:57;;;;;;;6.05;2.97;;;;;;;17.10;68.43;98397.66;4992818;28;20027;-67
2021/06/17 02:48:22;;;;;;;7.75;3.17;;;;;;;17.11;67.85;98396.59;4992943;28;20034;-67
2021/06/17 02:50:48;;;;;;;5.97;2.95;;;;;;;17.12;67.65;98391.94;4991736;28;20030;-67
2021/06/17 02:53:13;;;;;;;5.03;2.95;;;;;;;16.97;67.82;98393.41;4992009;28;20030;-67
2021/06/17 02:55:40;;;;;;;7.47;2.75;;;;;;;17.11;67.63;98410.25;4992858;28;20023;-67
2021/06/17 02:58:27;;;;;;;4.60;2.55;;;;;;;17.00;67.84;98408.47;4979135;28;20031;-67
2021/06/17 03:01:01;;;;;;;7.72;3.03;;;;;;;16.97;68.06;98403.50;4989898;28;20030;-67
2021/06/17 03:03:36;;;;;;;8.35;2.92;;;;;;;16.97;68.07;98409.78;4992357;28;20026;-67
2021/06/17 03:06:12;;;;;;;2.90;2.53;;;;;;;16.90;68.54;98411.06;4991057;28;20034;-67
2021/06/17 03:08:42;;;;;;;4.85;2.63;;;;;;;16.97;68.71;98417.16;4990154;28;20117;-67
2021/06/17 03:11:13;;;;;;;3.83;3.15;;;;;;;16.83;69.89;98414.81;4991504;28;20022;-67
2021/06/17 03:13:42;;;;;;;5.20;3.47;;;;;;;16.75;69.96;98403.47;4991813;28;20396;-67
2021/06/17 03:16:12;;;;;;;5.63;3.28;;;;;;;16.60;70.42;98396.72;4991783;28;20026;-67
2021/06/17 03:18:38;;;;;;;;;;;;;;;16.80;70.83;98417.25;4992605;28;20030;-68
2021/06/17 03:21:05;;;;;;;5.90;3.72;;;;;;;16.74;71.42;98413.59;4990193;28;20371;-68
2021/06/17 03:23:32;;;;;;;7.82;3.92;;;;;;;16.68;71.70;98402.84;4991698;28;20034;-68
2021/06/17 03:26:03;;;;;;;5.38;4.00;;;;;;;16.68;72.22;98419.22;4992170;28;20023;-68
2021/06/17 03:28:30;;;;;;;5.80;3.83;;;;;;;16.56;72.86;98413.88;4992770;28;20029;-69
2021/06/17 03:30:57;;;;;;;6.20;3.85;;;;;;;16.65;72.55;98426.84;4989735;28;20469;-67
2021/06/17 03:33:28;;;;;;;6.60;3.90;;;;;;;16.54;72.73;98416.84;4990751;28;20026;-73
2021/06/17 03:35:54;;;;;;;5.32;4.18;;;;;;;16.57;73.08;98434.66;4990050;28;20033;-72
2021/06/17 03:38:22;;;;;;;6.55;4.15;;;;;;;16.48;73.15;98431.53;4990985;28;20056;-72
2021/06/17 03:40:51;;;;;;;6.28;4.15;;;;;;;16.58;73.07;98439.00;4989403;28;20513;-72
2021/06/17 03:43:18;;;;;;;5.57;4.20;;;;;;;16.37;73.59;98430.56;4991409;28;20031;-72
2021/06/17 03:45:45;;;;;;;6.72;4.53;;;;;;;16.29;73.91;98436.41;4991938;28;20444;-70
2021/06/17 03:48:13;;;;;;;6.40;4.50;;;;;;;16.34;74.53;98454.78;4993241;28;20023;-73
2021/06/17 03:50:41;;;;;;;6.93;4.30;;;;;;;16.33;74.17;98437.56;4992424;28;20030;-72
2021/06/17 03:53:07;;;;;;;7.97;4.85;;;;;;;16.44;74.09;98465.84;4993024;28;20026;-71
2021/06/17 03:55:34;;;;;;;4.65;3.90;;;;;;;16.37;74.07;98466.03;4991981;28;20034;-68
2021/06/17 03:58:00;;;;;;;7.35;4.40;;;;;;;16.34;74.33;98471.97;4989941;28;20033;-67
2021/06/17 04:00:26;;;;;;;6.78;4.13;;;;;;;16.40;73.94;98471.00;4990077;28;20444;-67
2021/06/17 04:02:54;;;;;;;5.70;4.65;;;;;;;16.52;73.47;98483.72;4990889;28;20089;-66
2021/06/17 04:05:19;;;;;;;6.32;4.32;;;;;;;16.57;73.09;98476.44;4990775;28;20026;-66
2021/06/17 04:07:45;;;;;;;5.35;4.00;;;;;;;16.60;73.11;98481.38;4991179;28;20076;-65
2021/06/17 04:10:15;;;;;;;5.45;4.07;;;;;;;16.73;73.06;98479.38;4989949;28;20038;-67
2021/06/17 04:12:40;;;;;;;;;;;;;;;16.98;72.01;98478.97;4992051;28;20045;-68
2021/06/17 04:15:07;;;;;;;6.63;3.97;;;;;;;17.15;71.39;98471.50;4993922;28;19918;-74
2021/06/17 04:17:43;;;;;;;6.28;3.75;;;;;;;17.23;71.17;98460.13;4992662;28;20038;-74
2021/06/17 04:20:11;;;;;;;5.75;3.85;;;;;;;17.33;71.15;98439.47;4992517;28;20027;-73
2021/06/17 04:22:41;;;;;;;6.22;4.38;;;;;;;17.35;70.71;98437.31;4992186;28;20034;-73
2021/06/17 04:25:09;;;;;;;5.75;3.92;;;;;;;17.32;70.63;98435.91;4989775;28;20026;-68
2021/06/17 04:27:35;;;;;;;5.32;3.85;;;;;;;17.47;70.90;98463.41;4992239;28;20395;-69
2021/06/17 04:30:02;;;;;;;9.68;4.47;;;;;;;17.49;70.69;98471.38;4994798;28;20030;-65
2021/06/17 04:32:28;;;;;;;6.40;3.92;;;;;;;17.55;70.66;98466.78;4992454;28;20144;-67
2021/06/17 04:34:55;;;;;;;7.82;4.32;;;;;;;17.60;70.59;98477.78;4994925;28;20461;-67
2021/06/17 04:37:24;;;;;;;11.85;4.38;;;;;;;17.71;70.47;98485.84;4996061;28;20052;-67
2021/06/17 04:39:53;;;;;;;6.88;4.38;;;;;;;17.78;70.03;98479.34;4994840;28;20113;-67
2021/06/17 04:42:19;;;;;;;8.23;4.60;;;;;;;17.76;69.04;98474.09;4995700;28;20026;-73
2021/06/17 04:44:45;;;;;;;10.05;3.97;;;;;;;17.84;68.90;98464.63;5002751;28;20546;-70
2021/06/17 04:47:11;;;;;;;6.50;4.07;;;;;;;17.82;68.79;98455.88;4996949;28;20034;-67
2021/06/17 04:49:38;;;;;;;6.55;4.03;;;;;;;18.09;68.65;98475.84;4994516;28;20157;-67
2021/06/17 04:52:07;;;;;;;6.32;3.80;;;;;;;18.29;68.62;98479.84;4994562;28;20033;-68
2021/06/17 04:54:34;;;;;;;9.32;4.07;;;;;;;18.31;68.06;98450.25;4994099;28;20530;-68
2021/06/17 04:56:59;;;;;;;10.32;3.95;;;;;;;18.65;67.46;98482.84;4994089;28;20389;-66
2021/06/17 04:59:24;;;;;;;4.50;3.67;;;;;;;18.63;67.11;98488.59;4993918;28;20037;-73
2021/06/17 05:01:50;;;;;;;8.18;4.25;;;;;;;18.69;66.45;98490.28;4994854;28;20118;-72
2021/06/17 05:04:17;;;;;;;8.05;4.75;;;;;;;18.69;66.34;98475.75;4994150;28;20022;-73
2021/06/17 05:06:53;;;;;;;8.75;4.65;;;;;;;18.83;65.81;98493.41;4994622;28;20034;-74
2021/06/17 05:12:03;;;;;;;7.10;3.60;;;;;;;19.25;65.57;98489.78;4975662;28;20452;-68
2021/06/17 05:14:28;;;;;;;10.32;4.03;;;;;;;19.45;64.91;98492.59;5005143;28;20034;-63
2021/06/17 05:16:54;;;;;;;8.05;3.92;;;;;;;19.62;64.19;98491.56;5003737;28;20295;-69
2021/06/17 05:19:19;;;;;;;5.85;4.43;;;;;;;19.78;63.37;98492.44;4991394;28;20118;-67
2021/06/17 05:21:44;;;;;;;9.23;4.55;;;;;;;19.92;61.92;98485.34;4992007;28;20037;-69
2021/06/17 05:24:10;;;;;;;5.28;3.95;;;;;;;20.23;61.36;98485.41;4993244;28;20026;-73
2021/06/17 05:26:36;;;;;;;11.10;4.50;;;;;;;20.28;60.90;98485.41;4993161;28;20030;-69
2021/06/17 05:29:02;;;;;;;11.95;4.45;;;;;;;20.41;61.09;98479.34;5003622;28;20045;-69
2021/06/17 05:31:28;;;;;;;9.55;3.83;;;;;;;20.51;60.29;98467.50;4993552;28;20054;-67
2021/06/17 05:33:53;;;;;;;5.70;4.05;;;;;;;20.57;60.59;98458.22;4990480;28;20070;-68
2021/06/17 05:36:19;;;;;;;5.65;3.72;;;;;;;20.85;60.44;98481.50;4995750;28;20031;-66
2021/06/17 05:38:45;;;;;;;7.03;3.88;;;;;;;20.95;60.19;98472.41;4988406;28;20031;-64
2021/06/17 05:41:11;;;;;;;8.52;4.00;;;;;;;21.07;59.90;98455.59;4991767;28;20072;-67
2021/06/17 05:43:36;;;;;;;6.00;3.90;;;;;;;21.44;59.34;98471.72;4993490;28;20543;-67
2021/06/17 05:46:02;;;;;;;6.22;3.85;;;;;;;21.70;57.76;98463.31;4993539;28;20046;-68
2021/06/17 05:48:29;;;;;;;4.30;3.33;;;;;;;22.04;57.18;98466.13;4993260;28;20675;-68
2021/06/17 05:50:55;;;;;;;6.10;3.70;;;;;;;22.14;57.04;98473.47;4996250;28;20065;-66
2021/06/17 05:53:20;;;;;;;7.30;3.08;;;;;;;22.35;56.24;98486.03;4991496;28;20074;-67
2021/06/17 05:55:46;;;;;;;4.50;3.35;;;;;;;22.47;56.94;98486.47;4992984;28;20480;-69
2021/06/17 05:58:12;;;;;;;7.88;3.70;;;;;;;22.71;57.75;98486.50;4992053;28;20026;-69
2021/06/17 06:00:37;;;;;;;4.18;3.10;;;;;;;23.06;57.22;98478.22;4983141;28;20034;-68
2021/06/17 06:03:03;;;;;;;6.60;3.13;;;;;;;23.32;57.23;98473.22;4986776;28;20141;-67
2021/06/17 06:05:29;;;;;;;4.90;3.20;;;;;;;23.71;55.74;98461.94;4980874;28;20038;-67
2021/06/17 06:08:08;;;;;;;7.38;3.95;;;;;;;24.04;53.88;98470.31;4983614;28;20076;-67
2021/06/17 06:10:34;;;;;;;5.38;2.80;;;;;;;24.58;51.79;98479.97;4986080;28;20117;-67
2021/06/17 06:12:59;;;;;;;4.38;2.78;;;;;;;24.61;51.63;98479.34;4988324;28;20113;-67
2021/06/17 06:15:32;;;;;;;3.90;2.70;;;;;;;25.01;50.11;98465.88;4985732;28;20029;-67
2021/06/17 06:18:03;;;;;;;5.70;3.40;;;;;;;25.27;49.40;98484.78;4983497;28;20892;-67
2021/06/17 06:20:28;;;;;;;8.35;2.80;;;;;;;25.77;48.65;98479.28;4982867;28;20033;-65
2021/06/17 06:22:54;;;;;;;5.95;2.80;;;;;;;26.13;47.74;98453.56;4982902;28;20388;-72
2021/06/17 06:25:19;;;;;;;5.93;2.60;;;;;;;26.59;46.16;98474.63;4991115;28;20045;-70
2021/06/17 06:27:44;;;;;;;6.43;2.63;;;;;;;26.55;44.96;98479.97;4992797;28;20065;-73
2021/06/17 06:30:10;;;;;;;11.00;2.92;;;;;;;27.16;45.98;98474.75;4990969;28;20041;-74
2021/06/17 06:32:36;;;;;;;8.13;2.60;;;;;;;27.64;46.23;98470.31;4992250;28;20113;-72
2021/06/17 06:35:01;;;;;;;5.03;2.65;;;;;;;27.90;45.45;98473.19;4991955;28;20399;-73
2021/06/17 06:37:27;;;;;;;5.80;2.50;;;;;;;27.50;41.45;98473.25;4992963;28;20022;-73
2021/06/17 06:39:52;;;;;;;4.88;2.45;;;;;;;27.90;40.78;98478.72;4991643;28;20081;-71
2021/06/17 06:42:17;;;;;;;6.70;2.70;;;;;;;27.88;39.97;98481.84;4992669;28;20037;-70
2021/06/17 06:44:43;;;;;;;6.45;2.55;;;;;;;27.98;39.91;98472.34;4990459;28;20019;-72
2021/06/17 06:47:08;;;;;;;4.53;2.08;;;;;;;27.95;39.53;98475.78;5002149;28;20475;-69
2021/06/17 06:49:34;;;;;;;3.42;2.40;;;;;;;28.30;39.35;98470.25;4992401;28;20101;-69
2021/06/17 06:51:59;;;;;;;3.53;2.20;;;;;;;28.69;38.97;98479.53;4987240;28;20061;-73
2021/06/17 06:54:24;;;;;;;4.47;2.33;;;;;;;29.08;37.95;98484.03;4994981;28;20046;-69
2021/06/17 06:56:50;;;;;;;4.05;2.30;;;;;;;29.29;37.15;98478.53;4993612;28;20117;-68
2021/06/17 06:59:16;;;;;;;5.35;2.47;;;;;;;29.37;37.59;98483.28;4992503;28;20120;-68
2021/06/17 07:01:41;;;;;;;4.63;2.20;;;;;;;29.95;37.01;98483.59;4992605;28;20041;-68
2021/06/17 07:04:07;;;;;;;2.50;2.20;;;;;;;29.79;36.53;98475.00;4991684;28;20022;-68
2021/06/17 07:06:33;;;;;;;3.92;2.55;;;;;;;30.99;35.39;98476.25;4992737;28;20029;-68
2021/06/17 07:08:58;;;;;;;7.63;2.35;;;;;;;31.82;34.15;98471.38;4987142;28;20138;-68
2021/06/17 07:11:24;;;;;;;7.28;2.75;;;;;;;33.52;31.85;98482.13;4981309;28;20475;-68
2021/06/17 07:13:49;;;;;;;3.05;2.10;;;;;;;34.41;29.91;98483.34;4986206;28;20030;-68
2021/06/17 07:16:15;;;;;;;3.13;2.15;;;;;;;35.52;28.85;98491.03;4986415;28;20112;-68
2021/06/17 07:18:40;;;;;;;2.65;2.03;;;;;;;35.64;27.73;98475.97;4982146;28;20562;-67
2021/06/17 07:21:06;;;;;;;4.78;2.30;;;;;;;36.36;28.07;98491.06;4988559;28;20384;-67
2021/06/17 07:23:33;;;;;;;3.55;1.98;;;;;;;37.04;27.13;98489.06;4991646;28;20079;-68
2021/06/17 07:25:59;;;;;;;3.78;2.40;;;;;;;36.93;27.12;98483.28;4991717;28;20030;-66
2021/06/17 07:28:25;;;;;;;5.88;2.47;;;;;;;37.35;26.23;98493.38;4992044;28;20034;-72
2021/06/17 07:30:50;;;;;;;3.55;2.15;;;;;;;37.98;26.86;98493.47;4992454;28;20388;-74
2021/06/17 07:33:15;;;;;;;2.40;2.00;;;;;;;39.00;25.00;98499.97;4995072;28;20034;-73
2021/06/17 07:35:41;;;;;;;3.58;2.05;;;;;;;39.50;24.44;98482.22;4990962;28;20062;-70
2021/06/17 07:38:06;;;;;;;2.58;2.00;;;;;;;39.36;24.19;98483.06;4985172;28;20042;-71
2021/06/17 07:40:32;;;;;;;4.75;1.77;;;;;;;39.45;23.76;98486.28;4991447;28;20029;-70
2021/06/17 07:42:57;;;;;;;3.15;2.40;;;;;;;38.44;25.43;98485.25;4992865;28;20030;-68
2021/06/17 07:45:26;;;;;;;2.97;1.90;;;;;;;40.22;23.83;98483.75;4992701;28;20033;-67
2021/06/17 07:47:51;;;;;;;;;;;;;;;40.17;23.37;98487.00;4993370;28;20030;-67
2021/06/17 07:50:17;;;;;;;11.75;2.22;;;;;;;40.00;23.87;98487.84;4991807;28;19913;-67
2021/06/17 07:52:42;;;;;;;4.07;2.42;;;;;;;39.99;23.35;98487.03;4993806;28;20049;-72
2021/06/17 07:55:08;;;;;;;6.40;2.00;;;;;;;40.85;22.35;98474.53;4999394;28;20030;-64
2021/06/17 07:57:34;;;;;;;4.15;1.90;;;;;;;40.39;22.96;98486.94;4991620;28;20022;-66
2021/06/17 07:59:59;;;;;;;6.00;2.00;;;;;;;40.90;23.26;98483.44;4991819;28;20037;-66
2021/06/17 08:02:26;;;;;;;6.65;2.38;;;;;;;40.11;23.84;98485.78;4991099;28;20014;-67
2021/06/17 08:04:52;;;;;;;6.35;2.03;;;;;;;40.83;22.38;98479.84;4993749;28;20034;-70
2021/06/17 08:07:17;;;;;;;4.55;2.28;;;;;;;41.02;22.90;98467.94;4992324;28;20076;-67
2021/06/17 08:09:42;;;;;;;4.25;2.35;;;;;;;40.34;23.74;98459.81;4993607;28;20062;-66
2021/06/17 08:12:08;;;;;;;5.47;1.80;;;;;;;40.01;23.43;98470.44;4993752;28;20041;-73
2021/06/17 08:14:34;;;;;;;5.53;2.10;;;;;;;41.16;22.44;98467.88;4989645;28;20026;-71
2021/06/17 08:16:59;;;;;;;5.22;2.63;;;;;;;40.94;22.93;98472.06;4995127;28;20091;-72
2021/06/17 08:19:32;;;;;;;7.80;2.38;;;;;;;40.58;22.98;98472.25;4995948;28;20491;-67
2021/06/17 08:22:04;;;;;;;5.65;2.10;;;;;;;40.83;23.25;98474.16;4992529;28;20026;-66
2021/06/17 08:24:31;;;;;;;5.22;2.72;;;;;;;41.32;22.75;98461.66;4994010;28;20034;-64
2021/06/17 08:26:57;;;;;;;5.80;3.17;;;;;;;40.48;23.54;98481.59;4993780;28;20125;-65
2021/06/17 08:29:22;;;;;;;5.30;2.20;;;;;;;39.70;24.08;98480.59;4995184;28;20101;-65
2021/06/17 08:31:48;;;;;;;5.32;2.38;;;;;;;40.55;23.75;98478.75;4995527;28;20037;-65
2021/06/17 08:34:13;;;;;;;3.40;2.13;;;;;;;41.10;23.23;98474.41;4994927;28;20512;-64
2021/06/17 08:36:39;;;;;;;2.90;2.05;;;;;;;41.35;22.94;98474.22;4990753;28;20073;-66
2021/06/17 08:39:04;;;;;;;5.05;2.35;;;;;;;41.89;22.20;98459.50;4984386;28;20077;-66
2021/06/17 08:41:31;;;;;;;6.68;2.40;;;;;;;42.11;22.64;98462.97;4994212;28;20069;-68
2021/06/17 08:43:56;;;;;;;3.90;2.08;;;;;;;41.77;22.82;98455.97;4995560;28;20468;-66
2021/06/17 08:46:21;;;;;;;6.72;2.45;;;;;;;42.05;22.33;98445.53;4994619;28;20112;-67
2021/06/17 08:48:47;;;;;;;3.33;1.92;;;;;;;42.68;22.38;98456.53;4995277;28;20149;-68
2021/06/17 08:51:14;;;;;;;5.22;2.20;;;;;;;43.74;21.09;98447.53;4996539;28;20035;-67
2021/06/17 08:53:39;;;;;;;5.07;2.30;;;;;;;42.65;22.76;98452.50;4993251;28;20484;-66
2021/06/17 08:56:05;;;;;;;4.95;2.35;;;;;;;43.53;21.67;98459.28;4989425;28;20030;-67
2021/06/17 08:58:30;;;;;;;3.78;2.28;;;;;;;43.96;20.55;98447.09;4994490;28;20018;-67
2021/06/17 09:00:56;;;;;;;2.35;1.80;;;;;;;44.10;20.22;98455.41;4993620;28;20096;-66
2021/06/17 09:03:21;;;;;;;3.97;2.33;;;;;;;43.12;21.29;98452.63;4994754;28;20093;-68
2021/06/17 09:05:53;;;;;;;5.78;2.13;;;;;;;42.90;21.24;98474.13;4992294;28;20028;-67
2021/06/17 09:08:27;;;;;;;2.38;1.48;;;;;;;43.04;21.20;98473.09;4994628;28;20160;-70
2021/06/17 09:10:54;;;;;;;4.18;1.90;;;;;;;43.54;20.85;98475.13;4993036;28;20030;-68
2021/06/17 09:13:20;;;;;;;9.15;1.85;;;;;;;42.98;21.74;98469.94;4993148;28;20046;-70
2021/06/17 09:15:51;;;;;;;3.55;1.90;;;;;;;42.58;21.35;98475.38;4992908;28;20129;-68
2021/06/17 09:18:26;;;;;;;4.47;1.85;;;;;;;43.37;20.38;98479.13;4993236;28;20026;-72
2021/06/17 09:20:56;;;;;;;6.90;2.03;;;;;;;43.36;21.13;98481.13;4984589;28;20026;-70
2021/06/17 09:23:30;;;;;;;4.15;2.20;;;;;;;45.04;19.49;98477.84;4993854;28;20100;-66
2021/06/17 09:26:00;;;;;;;6.45;1.98;;;;;;;42.83;20.80;98492.09;4994164;28;20026;-66
2021/06/17 09:28:27;;;;;;;3.22;1.85;;;;;;;42.66;21.34;98501.69;4991286;28;20058;-65
2021/06/17 09:30:53;;;;;;;4.20;1.80;;;;;;;42.95;21.62;98498.47;4988916;28;20397;-66
2021/06/17 09:33:18;;;;;;;5.53;2.17;;;;;;;42.88;22.07;98511.53;4990557;28;20038;-67
2021/06/17 09:35:56;;;;;;;2.67;1.77;;;;;;;43.17;22.50;98516.03;4994794;28;20026;-67
2021/06/17 09:38:23;;;;;;;4.45;2.30;;;;;;;42.35;23.19;98518.72;4994828;28;20034;-67
2021/06/17 09:40:52;;;;;;;8.52;2.30;;;;;;;41.39;24.31;98517.56;4994072;28;20043;-70
2021/06/17 09:43:21;;;;;;;3.70;1.80;;;;;;;41.57;24.12;98518.25;4991400;28;20534;-67
2021/06/17 09:45:59;;;;;;;3.63;1.83;;;;;;;42.56;22.32;98505.47;4994537;28;20022;-67
2021/06/17 09:48:31;;;;;;;3.10;1.85;;;;;;;43.03;22.16;98514.19;4992441;28;20548;-66
2021/06/17 09:50:57;;;;;;;4.97;2.20;;;;;;;42.92;22.17;98511.50;4994190;28;20477;-67
2021/06/17 09:53:26;;;;;;;3.95;1.80;;;;;;;44.09;21.42;98513.66;4994476;28;20045;-66
2021/06/17 09:55:52;;;;;;;4.50;2.35;;;;;;;43.96;21.61;98502.06;5005223;28;20033;-66
2021/06/17 09:58:42;;;;;;;4.50;1.85;;;;;;;43.88;20.99;98485.53;4984706;28;20064;-66
2021/06/17 10:01:13;;;;;;;3.38;1.90;;;;;;;44.31;20.84;98491.25;4985031;28;20068;-66
2021/06/17 10:03:41;;;;;;;2.92;1.80;;;;;;;44.89;20.69;98504.31;4994031;28;20049;-67
2021/06/17 10:06:18;;;;;;;5.10;1.75;;;;;;;45.58;20.45;98510.03;4992874;28;20486;-66
2021/06/17 10:08:44;;;;;;;5.55;2.13;;;;;;;45.55;20.87;98506.00;4993851;28;20034;-66
2021/06/17 10:11:10;;;;;;;3.10;1.95;;;;;;;44.42;21.31;98507.34;4990785;28;20089;-66
2021/06/17 10:13:38;;;;;;;2.88;2.20;;;;;;;43.98;22.29;98507.38;4992840;28;20054;-66
2021/06/17 10:16:04;;;;;;;2.65;1.90;;;;;;;44.52;21.68;98497.78;4993625;28;20026;-66
2021/06/17 10:18:29;;;;;;;2.78;1.98;;;;;;;43.72;22.01;98494.78;4993369;28;20034;-66
2021/06/17 10:20:55;;;;;;;4.75;2.30;;;;;;;44.44;21.82;98511.38;4989928;28;20026;-67
2021/06/17 10:23:21;;;;;;;4.37;2.90;;;;;;;44.40;21.16;98508.59;4992983;28;20026;-67
2021/06/17 10:25:46;;;;;;;3.80;2.28;;;;;;;44.45;21.14;98500.75;4990684;28;20053;-67
2021/06/17 10:28:13;;;;;;;4.30;2.40;;;;;;;44.76;20.52;98493.56;4992579;28;20384;-67
2021/06/17 10:30:43;;;;;;;5.43;2.22;;;;;;;44.92;20.46;98495.66;4992368;28;20034;-66
2021/06/17 10:33:26;;;;;;;3.50;2.10;;;;;;;43.41;21.69;98485.53;4992866;28;20026;-67
2021/06/17 10:35:52;;;;;;;5.97;2.33;;;;;;;43.82;21.12;98488.09;4993360;28;20027;-67
2021/06/17 10:38:17;;;;;;;5.65;2.45;;;;;;;44.09;22.08;98482.28;4992237;28;20073;-67
2021/06/17 10:40:43;;;;;;;4.35;2.47;;;;;;;43.91;20.94;98485.47;4988248;28;20031;-67
2021/06/17 10:43:21;;;;;;;2.20;2.00;;;;;;;44.27;20.91;98478.28;4991481;28;20026;-67
2021/06/17 10:45:49;;;;;;;3.10;2.20;;;;;;;44.81;21.23;98483.69;4992861;28;20488;-68
2021/06/17 10:48:24;;;;;;;4.53;2.55;;;;;;;44.81;20.30;98463.72;4992513;28;20411;-68
2021/06/17 10:50:54;;;;;;;2.55;1.98;;;;;;;45.11;20.22;98478.91;4992909;28;20030;-68
2021/06/17 10:53:22;;;;;;;3.42;2.30;;;;;;;44.96;20.70;98475.56;4992456;28;20026;-68
2021/06/17 10:56:18;;;;;;;2.75;2.30;;;;;;;45.18;19.72;98481.63;4990951;28;20029;-71
2021/06/17 10:58:44;;;;;;;2.58;2.08;;;;;;;44.66;21.27;98477.47;4991438;28;20022;-66
2021/06/17 11:01:40;;;;;;;4.60;2.58;;;;;;;45.02;20.65;98476.69;4992046;28;20101;-66
2021/06/17 11:04:07;;;;;;;3.25;2.53;;;;;;;44.55;21.83;98477.72;4992427;28;20038;-68
2021/06/17 11:06:48;;;;;;;3.65;2.35;;;;;;;44.67;21.87;98472.56;4994475;28;20687;-67
2021/06/17 11:09:42;;;;;;;2.88;2.30;;;;;;;44.88;21.37;98472.09;4984657;28;20030;-67
2021/06/17 11:12:28;;;;;;;5.80;2.40;;;;;;;45.51;20.29;98470.97;4986798;28;20034;-68
2021/06/17 11:14:58;;;;;;;5.45;2.47;;;;;;;45.02;20.34;98471.75;4982957;28;20049;-75
2021/06/17 11:17:26;;;;;;;3.00;2.30;;;;;;;44.38;20.17;98462.56;4988486;28;20033;-65
2021/06/17 11:20:10;;;;;;;7.85;2.30;;;;;;;44.41;21.08;98460.88;4991367;28;20045;-66
2021/06/17 11:22:40;;;;;;;6.38;2.35;;;;;;;44.28;22.39;98457.91;4993870;28;20026;-68
2021/06/17 11:25:13;;;;;;;4.95;2.50;;;;;;;44.37;21.69;98463.03;4994740;28;20512;-67
2021/06/17 11:27:57;;;;;;;6.43;2.20;;;;;;;44.27;20.89;98467.69;4992015;28;20400;-66
2021/06/17 11:30:38;;;;;;;5.97;1.90;;;;;;;43.98;21.08;98462.56;4991631;28;20436;-65
2021/06/17 11:33:15;;;;;;;3.53;2.30;;;;;;;44.35;21.61;98456.91;4996855;28;20408;-66
2021/06/17 11:35:45;;;;;;;3.80;2.17;;;;;;;45.25;19.90;98461.44;5002107;28;20038;-67
2021/06/17 11:38:11;;;;;;;2.35;2.15;;;;;;;45.15;19.05;98456.78;4996658;28;20045;-65
2021/06/17 11:40:37;;;;;;;4.22;2.13;;;;;;;44.16;20.22;98445.09;4993801;28;20060;-66
2021/06/17 11:43:03;;;;;;;3.15;2.33;;;;;;;44.18;19.13;98451.16;4994048;28;20109;-67